createdAt,value
2019-06-01T00:02:21.643Z,96112.55
2019-06-01T00:04:52.364Z,96115.16
2019-06-01T00:07:22.447Z,96120.34
2019-06-01T00:09:52.418Z,96107.78
2019-06-01T00:12:22.431Z,96110.02
2019-06-01T00:14:52.416Z,96108.67
2019-06-01T00:17:22.495Z,96103.70
2019-06-01T00:19:52.483Z,96104.34
2019-06-01T00:22:22.563Z,96099.56
2019-06-01T00:24:52.556Z,96097.70
2019-06-01T00:27:22.642Z,96093.66
2019-06-01T00:29:53.135Z,96094.01
2019-06-01T00:32:23.258Z,96093.17
2019-06-01T00:34:53.321Z,96094.01
2019-06-01T00:37:23.383Z,96090.83
2019-06-01T00:39:53.435Z,96094.93
2019-06-01T00:42:23.522Z,96092.87
2019-06-01T00:44:53.572Z,96082.23
2019-06-01T00:47:23.655Z,96081.40
2019-06-01T00:49:53.636Z,96081.97
2019-06-01T00:52:23.650Z,96080.46
2019-06-01T00:54:53.710Z,96078.66
2019-06-01T00:57:23.720Z,96071.14
2019-06-01T00:59:55.103Z,96072.38
2019-06-01T01:02:25.490Z,96072.98
2019-06-01T01:05:13.522Z,96075.01
2019-06-01T01:07:44.548Z,96073.82
2019-06-01T01:10:15.838Z,96077.56
2019-06-01T01:13:05.826Z,96081.63
2019-06-01T01:15:36.781Z,96079.55
2019-06-01T01:18:08.087Z,96080.39
2019-06-01T01:20:38.791Z,96077.84
2019-06-01T01:23:09.387Z,96073.82
2019-06-01T01:25:39.420Z,96077.89
2019-06-01T01:28:09.393Z,96075.73
2019-06-01T01:30:39.421Z,96073.82
2019-06-01T01:33:09.433Z,96072.83
2019-06-01T01:35:39.415Z,96073.95
2019-06-01T01:38:09.357Z,96075.94
2019-06-01T01:40:39.346Z,96073.06
2019-06-01T01:43:09.424Z,96074.38
2019-06-01T01:45:39.404Z,96072.73
2019-06-01T01:48:09.425Z,96073.06
2019-06-01T01:50:39.406Z,96076.20
2019-06-01T01:53:09.417Z,96080.62
2019-06-01T01:55:39.391Z,96075.56
2019-06-01T01:58:09.409Z,96069.31
2019-06-01T02:00:42.373Z,96068.44
2019-06-01T02:03:12.458Z,96074.30
2019-06-01T02:05:42.502Z,96071.72
2019-06-01T02:08:12.604Z,96070.80
2019-06-01T02:10:43.656Z,96068.69
2019-06-01T02:13:13.671Z,96066.06
2019-06-01T02:15:43.657Z,96064.62
2019-06-01T02:18:13.749Z,96064.75
2019-06-01T02:20:43.731Z,96063.44
2019-06-01T02:23:13.757Z,96062.61
2019-06-01T02:25:43.809Z,96061.09
2019-06-01T02:28:13.823Z,96061.09
2019-06-01T02:30:43.813Z,96064.23
2019-06-01T02:33:13.781Z,96063.88
2019-06-01T02:35:43.837Z,96055.33
2019-06-01T02:38:13.828Z,96058.88
2019-06-01T02:40:43.943Z,96061.14
2019-06-01T02:43:14.523Z,96053.34
2019-06-01T02:45:44.538Z,96053.34
2019-06-01T02:48:14.517Z,96054.95
2019-06-01T02:50:44.541Z,96056.53
2019-06-01T02:53:14.510Z,96054.27
2019-06-01T02:55:44.529Z,96052.75
2019-06-01T02:58:14.513Z,96058.48
2019-06-01T03:01:02.985Z,96060.63
2019-06-01T03:03:33.225Z,96059.31
2019-06-01T03:06:05.595Z,96062.78
2019-06-01T03:08:37.452Z,96058.36
2019-06-01T03:11:09.486Z,96063.45
2019-06-01T03:13:42.305Z,96059.72
2019-06-01T03:16:15.191Z,96063.26
2019-06-01T03:18:46.397Z,96066.91
2019-06-01T03:21:19.110Z,96062.98
2019-06-01T03:23:50.123Z,96062.98
2019-06-01T03:26:23.010Z,96062.98
2019-06-01T03:28:54.705Z,96061.94
2019-06-01T03:31:24.684Z,96065.41
2019-06-01T03:33:54.696Z,96064.41
2019-06-01T03:36:24.668Z,96066.91
2019-06-01T03:38:54.691Z,96067.23
2019-06-01T03:41:24.673Z,96065.25
2019-06-01T03:43:55.816Z,96062.98
2019-06-01T03:46:25.901Z,96062.70
2019-06-01T03:48:55.975Z,96063.73
2019-06-01T03:51:25.993Z,96067.59
2019-06-01T03:53:55.983Z,96060.83
2019-06-01T03:56:25.996Z,96065.60
2019-06-01T03:58:55.983Z,96064.13
2019-06-01T04:01:26.000Z,96065.16
2019-06-01T04:03:56.054Z,96067.11
2019-06-01T04:06:26.842Z,96066.16
2019-06-01T04:08:56.857Z,96066.83
2019-06-01T04:11:26.835Z,96064.73
2019-06-01T04:13:56.869Z,96066.59
2019-06-01T04:16:26.918Z,96062.92
2019-06-01T04:18:56.938Z,96062.95
2019-06-01T04:21:26.912Z,96056.98
2019-06-01T04:23:56.924Z,96060.63
2019-06-01T04:26:27.676Z,96061.98
2019-06-01T04:28:57.758Z,96065.19
2019-06-01T04:31:27.733Z,96066.13
2019-06-01T04:33:57.746Z,96066.16
2019-06-01T04:36:27.731Z,96066.55
2019-06-01T04:38:57.804Z,96068.13
2019-06-01T04:41:27.830Z,96064.11
2019-06-01T04:43:58.180Z,96068.15
2019-06-01T04:46:28.194Z,96062.69
2019-06-01T04:48:58.175Z,96059.37
2019-06-01T04:51:28.188Z,96058.99
2019-06-01T04:53:58.169Z,96064.22
2019-06-01T04:56:28.306Z,96063.67
2019-06-01T04:58:58.320Z,96059.34
2019-06-01T05:01:28.364Z,96060.77
2019-06-01T05:03:58.385Z,96069.58
2019-06-01T05:06:29.460Z,96059.28
2019-06-01T05:08:59.438Z,96060.66
2019-06-01T05:11:29.445Z,96061.73
2019-06-01T05:13:59.450Z,96061.78
2019-06-01T05:16:29.428Z,96059.05
2019-06-01T05:18:59.439Z,96060.80
2019-06-01T05:21:29.479Z,96062.32
2019-06-01T05:23:59.494Z,96059.72
2019-06-01T05:26:29.472Z,96057.11
2019-06-01T05:29:00.664Z,96056.81
2019-06-01T05:31:30.634Z,96056.86
2019-06-01T05:34:00.643Z,96057.05
2019-06-01T05:36:30.637Z,96058.55
2019-06-01T05:39:00.648Z,96059.70
2019-06-01T05:41:30.694Z,96059.09
2019-06-01T05:44:00.779Z,96056.95
2019-06-01T05:46:30.775Z,96051.66
2019-06-01T05:49:00.747Z,96054.45
2019-06-01T05:51:30.754Z,96050.14
2019-06-01T05:54:00.811Z,96049.47
2019-06-01T05:56:30.807Z,96053.57
2019-06-01T05:59:00.856Z,96054.84
2019-06-01T06:01:30.875Z,96059.66
2019-06-01T06:04:00.857Z,96054.31
2019-06-01T06:06:30.877Z,96053.27
2019-06-01T06:09:00.865Z,96056.52
2019-06-01T06:11:32.367Z,96058.30
2019-06-01T06:14:02.421Z,96058.22
2019-06-01T06:16:32.362Z,96050.08
2019-06-01T06:19:02.351Z,96056.95
2019-06-01T06:21:32.364Z,96055.41
2019-06-01T06:24:02.508Z,96047.51
2019-06-01T06:26:32.526Z,96044.59
2019-06-01T06:29:02.589Z,96044.31
2019-06-01T06:31:32.596Z,96045.36
2019-06-01T06:34:02.572Z,96041.25
2019-06-01T06:36:32.586Z,96045.63
2019-06-01T06:39:04.685Z,96047.81
2019-06-01T06:41:34.263Z,96048.69
2019-06-01T06:44:04.346Z,96046.55
2019-06-01T06:46:34.319Z,96047.25
2019-06-01T06:49:04.328Z,96044.20
2019-06-01T06:51:34.298Z,96048.72
2019-06-01T06:54:04.306Z,96049.88
2019-06-01T06:56:34.354Z,96048.80
2019-06-01T06:59:04.400Z,96046.46
2019-06-01T07:01:34.378Z,96043.02
2019-06-01T07:04:12.829Z,96045.69
2019-06-01T07:06:36.144Z,96043.16
2019-06-01T07:09:07.083Z,96042.71
2019-06-01T07:11:37.136Z,96043.83
2019-06-01T07:14:07.127Z,96046.95
2019-06-01T07:16:37.105Z,96045.55
2019-06-01T07:19:07.113Z,96045.13
2019-06-01T07:21:37.163Z,96046.61
2019-06-01T07:24:07.193Z,96050.17
2019-06-01T07:26:37.193Z,96046.83
2019-06-01T07:29:07.188Z,96047.45
2019-06-01T07:31:37.154Z,96046.27
2019-06-01T07:34:07.162Z,96046.05
2019-06-01T07:36:37.138Z,96052.83
2019-06-01T07:39:08.319Z,96049.55
2019-06-01T07:41:38.296Z,96050.61
2019-06-01T07:44:08.303Z,96055.38
2019-06-01T07:46:39.106Z,96053.45
2019-06-01T07:49:09.117Z,96050.40
2019-06-01T07:51:39.204Z,96043.89
2019-06-01T07:54:09.257Z,96043.17
2019-06-01T07:56:39.198Z,96044.33
2019-06-01T07:59:09.171Z,96047.83
2019-06-01T08:01:39.301Z,96040.11
2019-06-01T08:04:09.235Z,96042.27
2019-06-01T08:06:45.242Z,96033.62
2019-06-01T08:09:10.996Z,96033.36
2019-06-01T08:11:41.006Z,96033.78
2019-06-01T08:14:11.071Z,96032.26
2019-06-01T08:16:41.200Z,96035.43
2019-06-01T08:19:11.182Z,96030.41
2019-06-01T08:21:41.252Z,96027.86
2019-06-01T08:24:11.332Z,96024.37
2019-06-01T08:26:41.463Z,96020.17
2019-06-01T08:29:11.443Z,96026.62
2019-06-01T08:31:41.380Z,96026.22
2019-06-01T08:34:11.467Z,96022.92
2019-06-01T08:36:41.556Z,96018.51
2019-06-01T08:39:11.536Z,96025.70
2019-06-01T08:41:41.558Z,96023.85
2019-06-01T08:44:11.625Z,96028.75
2019-06-01T08:46:41.671Z,96019.69
2019-06-01T08:49:11.682Z,96014.16
2019-06-01T08:51:41.585Z,96013.14
2019-06-01T08:54:11.596Z,96012.41
2019-06-01T08:56:41.644Z,96013.02
2019-06-01T08:59:11.658Z,96012.98
2019-06-01T09:01:41.674Z,96009.70
2019-06-01T09:04:11.654Z,96007.94
2019-06-01T09:06:41.670Z,96002.50
2019-06-01T09:09:12.084Z,96008.85
2019-06-01T09:11:42.519Z,96005.63
2019-06-01T09:14:12.503Z,96003.63
2019-06-01T09:16:42.610Z,95996.70
2019-06-01T09:19:12.586Z,95995.55
2019-06-01T09:21:42.581Z,96005.25
2019-06-01T09:24:12.557Z,95998.66
2019-06-01T09:26:42.578Z,95994.39
2019-06-01T09:29:12.485Z,96000.94
2019-06-01T09:31:42.506Z,95993.26
2019-06-01T09:34:12.491Z,95996.08
2019-06-01T09:36:42.502Z,95994.59
2019-06-01T09:39:12.483Z,95996.19
2019-06-01T09:41:42.482Z,95995.08
2019-06-01T09:44:12.501Z,95995.16
2019-06-01T09:46:42.565Z,95994.40
2019-06-01T09:49:12.550Z,95996.19
2019-06-01T09:51:42.570Z,95994.38
2019-06-01T09:54:12.550Z,95997.72
2019-06-01T09:56:42.627Z,95995.08
2019-06-01T09:59:12.607Z,95997.32
2019-06-01T10:01:42.627Z,95996.58
2019-06-01T10:04:12.611Z,95999.25
2019-06-01T10:06:42.616Z,95997.25
2019-06-01T10:09:12.594Z,96002.33
2019-06-01T10:11:42.606Z,96004.66
2019-06-01T10:14:12.593Z,95998.33
2019-06-01T10:16:43.236Z,96001.71
2019-06-01T10:19:13.456Z,95992.38
2019-06-01T10:21:43.459Z,95992.08
2019-06-01T10:24:13.437Z,95985.66
2019-06-01T10:26:43.524Z,95990.42
2019-06-01T10:29:13.491Z,95988.22
2019-06-01T10:31:43.514Z,95986.09
2019-06-01T10:34:13.559Z,95980.31
2019-06-01T10:36:43.579Z,95986.61
2019-06-01T10:39:13.628Z,95979.55
2019-06-01T10:41:43.638Z,95985.48
2019-06-01T10:44:13.547Z,95979.47
2019-06-01T10:46:43.559Z,95978.20
2019-06-01T10:49:13.539Z,95975.52
2019-06-01T10:51:43.489Z,95983.19
2019-06-01T10:54:13.467Z,95975.48
2019-06-01T10:56:44.685Z,95977.47
2019-06-01T10:59:14.698Z,95978.81
2019-06-01T11:01:44.756Z,95975.59
2019-06-01T11:04:14.735Z,95967.30
2019-06-01T11:06:48.548Z,95970.84
2019-06-01T11:09:16.359Z,95971.50
2019-06-01T11:11:46.431Z,95969.61
2019-06-01T11:14:16.481Z,95963.45
2019-06-01T11:16:51.343Z,95962.05
2019-06-01T11:19:18.117Z,95960.60
2019-06-01T11:21:48.095Z,95954.78
2019-06-01T11:24:18.103Z,95953.25
2019-06-01T11:26:48.072Z,95950.00
2019-06-01T11:29:18.055Z,95955.06
2019-06-01T11:31:48.068Z,95950.12
2019-06-01T11:34:18.054Z,95943.41
2019-06-01T11:37:04.303Z,95944.52
2019-06-01T11:39:19.736Z,95939.55
2019-06-01T11:41:49.671Z,95945.30
2019-06-01T11:44:19.655Z,95938.03
2019-06-01T11:46:49.586Z,95939.37
2019-06-01T11:49:21.241Z,95936.78
2019-06-01T11:51:51.569Z,95932.88
2019-06-01T11:54:21.887Z,95934.05
2019-06-01T11:56:51.907Z,95925.66
2019-06-01T11:59:21.803Z,95920.49
2019-06-01T12:01:51.915Z,95922.17
2019-06-01T12:04:21.879Z,95913.61
2019-06-01T12:06:52.579Z,95910.72
2019-06-01T12:09:22.548Z,95915.48
2019-06-01T12:11:52.574Z,95910.11
2019-06-01T12:14:22.546Z,95914.89
2019-06-01T12:16:52.631Z,95912.23
2019-06-01T12:19:22.610Z,95908.51
2019-06-01T12:21:52.705Z,95903.33
2019-06-01T12:24:25.639Z,95912.66
2019-06-01T12:26:54.337Z,95905.56
2019-06-01T12:29:24.381Z,95901.59
2019-06-01T12:31:54.465Z,95907.45
2019-06-01T12:34:24.437Z,95897.75
2019-06-01T12:36:54.378Z,95896.88
2019-06-01T12:39:24.437Z,95894.07
2019-06-01T12:41:54.448Z,95891.31
2019-06-01T12:44:24.423Z,95891.17
2019-06-01T12:46:54.503Z,95889.37
2019-06-01T12:49:24.544Z,95877.69
2019-06-01T12:51:54.593Z,95883.88
2019-06-01T12:54:24.455Z,95881.30
2019-06-01T12:56:54.463Z,95874.15
2019-06-01T12:59:24.444Z,95871.33
2019-06-01T13:01:56.232Z,95872.45
2019-06-01T13:04:26.208Z,95869.30
2019-06-01T13:06:56.218Z,95871.41
2019-06-01T13:09:26.198Z,95870.66
2019-06-01T13:11:56.221Z,95863.00
2019-06-01T13:14:26.309Z,95866.25
2019-06-01T13:17:06.799Z,95866.56
2019-06-01T13:19:27.997Z,95861.77
2019-06-01T13:21:57.903Z,95857.48
2019-06-01T13:24:27.979Z,95858.73
2019-06-01T13:26:57.978Z,95851.75
2019-06-01T13:29:27.930Z,95848.05
2019-06-01T13:31:57.911Z,95850.52
2019-06-01T13:34:27.923Z,95854.47
2019-06-01T13:36:57.910Z,95839.43
2019-06-01T13:39:27.926Z,95843.32
2019-06-01T13:41:57.912Z,95842.97
2019-06-01T13:44:27.923Z,95834.83
2019-06-01T13:46:57.892Z,95837.56
2019-06-01T13:49:27.961Z,95835.00
2019-06-01T13:51:57.941Z,95832.17
2019-06-01T13:54:27.951Z,95833.19
2019-06-01T13:56:58.030Z,95820.61
2019-06-01T13:59:28.111Z,95819.72
2019-06-01T14:01:58.088Z,95813.16
2019-06-01T14:04:28.178Z,95809.06
2019-06-01T14:06:58.153Z,95809.73
2019-06-01T14:09:28.164Z,95804.33
2019-06-01T14:11:58.135Z,95805.37
2019-06-01T14:14:28.147Z,95799.87
2019-06-01T14:16:58.160Z,95798.31
2019-06-01T14:19:28.138Z,95800.56
2019-06-01T14:21:58.149Z,95796.97
2019-06-01T14:24:28.131Z,95801.95
2019-06-01T14:26:58.157Z,95805.67
2019-06-01T14:29:28.074Z,95799.66
2019-06-01T14:31:58.099Z,95794.09
2019-06-01T14:34:28.078Z,95795.02
2019-06-01T14:36:58.084Z,95794.69
2019-06-01T14:39:28.062Z,95797.04
2019-06-01T14:41:58.059Z,95795.31
2019-06-01T14:44:28.111Z,95792.84
2019-06-01T14:47:03.819Z,95791.59
2019-06-01T14:49:29.731Z,95793.98
2019-06-01T14:51:59.734Z,95787.98
2019-06-01T14:54:29.677Z,95786.13
2019-06-01T14:56:59.721Z,95788.38
2019-06-01T14:59:29.765Z,95783.65
2019-06-01T15:01:59.741Z,95780.14
2019-06-01T15:04:29.759Z,95775.91
2019-06-01T15:06:59.783Z,95774.24
2019-06-01T15:09:29.767Z,95778.62
2019-06-01T15:11:59.744Z,95776.21
2019-06-01T15:14:29.750Z,95774.86
2019-06-01T15:16:59.790Z,95777.30
2019-06-01T15:19:30.971Z,95768.44
2019-06-01T15:22:00.910Z,95765.80
2019-06-01T15:24:30.895Z,95772.70
2019-06-01T15:27:00.862Z,95765.22
2019-06-01T15:29:30.839Z,95764.91
2019-06-01T15:32:02.167Z,95768.84
2019-06-01T15:34:32.599Z,95769.13
2019-06-01T15:37:02.609Z,95764.69
2019-06-01T15:39:32.589Z,95764.91
2019-06-01T15:42:02.709Z,95757.05
2019-06-01T15:44:32.705Z,95759.94
2019-06-01T15:47:02.740Z,95762.33
2019-06-01T15:49:32.726Z,95758.03
2019-06-01T15:52:03.758Z,95750.69
2019-06-01T15:54:33.740Z,95749.89
2019-06-01T15:57:03.798Z,95759.48
2019-06-01T15:59:33.763Z,95758.72
2019-06-01T16:02:03.777Z,95746.37
2019-06-01T16:04:33.759Z,95744.91
2019-06-01T16:07:03.798Z,95746.76
2019-06-01T16:09:42.625Z,95738.50
2019-06-01T16:12:05.705Z,95742.06
2019-06-01T16:14:35.780Z,95737.22
2019-06-01T16:17:05.855Z,95738.70
2019-06-01T16:19:35.946Z,95736.43
2019-06-01T16:22:05.917Z,95736.31
2019-06-01T16:24:35.993Z,95729.91
2019-06-01T16:27:06.079Z,95737.44
2019-06-01T16:29:36.088Z,95729.40
2019-06-01T16:32:06.097Z,95733.13
2019-06-01T16:34:36.100Z,95728.75
2019-06-01T16:37:06.084Z,95733.29
2019-06-01T16:39:36.168Z,95730.26
2019-06-01T16:42:06.322Z,95727.22
2019-06-01T16:44:36.443Z,95728.86
2019-06-01T16:47:06.427Z,95722.62
2019-06-01T16:49:36.437Z,95722.50
2019-06-01T16:52:07.179Z,95716.89
2019-06-01T16:54:37.440Z,95725.55
2019-06-01T16:57:07.490Z,95715.40
2019-06-01T16:59:38.580Z,95717.44
2019-06-01T17:02:09.252Z,95720.80
2019-06-01T17:04:39.263Z,95722.08
2019-06-01T17:07:09.280Z,95716.44
2019-06-01T17:09:39.364Z,95717.38
2019-06-01T17:12:09.390Z,95725.55
2019-06-01T17:14:39.511Z,95724.27
2019-06-01T17:17:09.595Z,95724.53
2019-06-01T17:19:39.611Z,95721.12
2019-06-01T17:22:09.655Z,95720.70
2019-06-01T17:24:39.741Z,95719.72
2019-06-01T17:27:09.713Z,95722.41
2019-06-01T17:29:39.731Z,95719.90
2019-06-01T17:32:23.027Z,95726.08
2019-06-01T17:34:41.492Z,95715.99
2019-06-01T17:37:11.474Z,95711.95
2019-06-01T17:39:41.785Z,95719.79
2019-06-01T17:42:12.724Z,95715.97
2019-06-01T17:44:43.222Z,95721.91
2019-06-01T17:47:13.189Z,95716.84
2019-06-01T17:49:43.285Z,95712.00
2019-06-01T17:52:13.249Z,95715.97
2019-06-01T17:54:44.428Z,95716.22
2019-06-01T17:57:14.436Z,95712.91
2019-06-01T17:59:44.648Z,95712.59
2019-06-01T18:02:15.041Z,95713.45
2019-06-01T18:04:45.079Z,95715.14
2019-06-01T18:07:15.164Z,95712.66
2019-06-01T18:09:45.185Z,95712.20
2019-06-01T18:12:15.308Z,95710.80
2019-06-01T18:14:45.320Z,95709.09
2019-06-01T18:17:15.366Z,95720.85
2019-06-01T18:19:45.458Z,95716.87
2019-06-01T18:22:15.434Z,95712.84
2019-06-01T18:24:45.523Z,95719.91
2019-06-01T18:27:15.577Z,95716.63
2019-06-01T18:29:48.672Z,95714.75
2019-06-01T18:32:17.398Z,95718.75
2019-06-01T18:34:47.479Z,95718.20
2019-06-01T18:37:17.518Z,95715.61
2019-06-01T18:39:48.268Z,95717.16
2019-06-01T18:42:21.336Z,95717.31
2019-06-01T18:44:51.349Z,95706.11
2019-06-01T18:47:31.811Z,95712.40
2019-06-01T18:49:53.304Z,95709.12
2019-06-01T18:52:23.289Z,95715.15
2019-06-01T18:54:53.372Z,95713.76
2019-06-01T18:57:23.455Z,95715.66
2019-06-01T18:59:53.544Z,95713.98
2019-06-01T19:02:23.532Z,95714.43
2019-06-01T19:04:53.549Z,95715.19
2019-06-01T19:07:23.534Z,95719.95
2019-06-01T19:09:53.620Z,95729.24
2019-06-01T19:12:24.528Z,95723.36
2019-06-01T19:14:54.993Z,95726.48
2019-06-01T19:17:24.998Z,95732.83
2019-06-01T19:19:54.985Z,95732.88
2019-06-01T19:22:25.062Z,95737.18
2019-06-01T19:24:55.052Z,95737.09
2019-06-01T19:27:25.054Z,95735.15
2019-06-01T19:29:55.031Z,95737.77
2019-06-01T19:32:25.047Z,95742.97
2019-06-01T19:34:55.436Z,95744.39
2019-06-01T19:37:26.917Z,95747.34
2019-06-01T19:39:57.107Z,95751.84
2019-06-01T19:42:27.101Z,95746.77
2019-06-01T19:44:57.111Z,95752.77
2019-06-01T19:47:27.092Z,95758.00
2019-06-01T19:49:57.105Z,95754.68
2019-06-01T19:52:27.155Z,95757.82
2019-06-01T19:54:57.175Z,95765.42
2019-06-01T19:57:27.082Z,95760.55
2019-06-01T19:59:57.035Z,95762.03
2019-06-01T20:02:33.787Z,95765.00
2019-06-01T20:04:58.798Z,95762.49
2019-06-01T20:07:28.850Z,95760.59
2019-06-01T20:09:58.859Z,95766.16
2019-06-01T20:12:28.844Z,95765.30
2019-06-01T20:14:58.826Z,95765.05
2019-06-01T20:17:28.940Z,95758.05
2019-06-01T20:19:58.910Z,95761.41
2019-06-01T20:22:28.907Z,95758.81
2019-06-01T20:24:58.827Z,95757.36
2019-06-01T20:27:28.909Z,95764.57
2019-06-01T20:29:58.952Z,95765.95
2019-06-01T20:32:29.044Z,95760.72
2019-06-01T20:34:59.085Z,95758.64
2019-06-01T20:37:29.097Z,95757.06
2019-06-01T20:39:59.073Z,95759.64
2019-06-01T20:42:32.433Z,95756.08
2019-06-01T20:45:00.847Z,95754.03
2019-06-01T20:47:32.751Z,95760.08
2019-06-01T20:50:03.741Z,95753.39
2019-06-01T20:52:33.828Z,95754.50
2019-06-01T20:55:06.245Z,95758.22
2019-06-01T20:57:36.301Z,95756.00
2019-06-01T21:00:10.804Z,95760.91
2019-06-01T21:02:41.950Z,95757.53
2019-06-01T21:05:13.747Z,95760.64
2019-06-01T21:07:43.971Z,95758.33
2019-06-01T21:10:16.183Z,95761.90
2019-06-01T21:12:46.387Z,95762.29
2019-06-01T21:15:17.386Z,95766.19
2019-06-01T21:17:50.150Z,95758.08
2019-06-01T21:20:26.872Z,95755.78
2019-06-01T21:22:52.566Z,95760.81
2019-06-01T21:25:22.915Z,95765.50
2019-06-01T21:27:53.223Z,95764.09
2019-06-01T21:30:24.647Z,95763.48
2019-06-01T21:32:54.923Z,95764.83
2019-06-01T21:35:25.563Z,95765.38
2019-06-01T21:37:55.715Z,95765.24
2019-06-01T21:40:25.824Z,95767.47
2019-06-01T21:43:03.089Z,95765.67
2019-06-01T21:45:27.661Z,95765.23
2019-06-01T21:47:57.648Z,95762.30
2019-06-01T21:50:27.664Z,95759.53
2019-06-01T21:52:57.660Z,95758.26
2019-06-01T21:55:27.736Z,95758.12
2019-06-01T21:57:57.718Z,95757.28
2019-06-01T22:00:33.830Z,95765.57
2019-06-01T22:03:07.405Z,95767.93
2019-06-01T22:05:37.702Z,95764.47
2019-06-01T22:08:07.681Z,95766.00
2019-06-01T22:10:37.696Z,95766.84
2019-06-01T22:13:18.211Z,95763.57
2019-06-01T22:15:39.384Z,95764.75
2019-06-01T22:18:09.365Z,95767.44
2019-06-01T22:20:39.376Z,95763.32
2019-06-01T22:23:11.828Z,95763.83
2019-06-01T22:25:41.160Z,95770.66
2019-06-01T22:28:11.243Z,95760.29
2019-06-01T22:30:42.213Z,95758.15
2019-06-01T22:33:12.230Z,95763.66
2019-06-01T22:35:42.245Z,95759.70
2019-06-01T22:38:12.224Z,95758.23
2019-06-01T22:40:42.257Z,95763.03
2019-06-01T22:43:12.250Z,95765.70
2019-06-01T22:45:42.271Z,95762.58
2019-06-01T22:48:12.252Z,95763.60
2019-06-01T22:50:42.366Z,95762.47
2019-06-01T22:53:12.344Z,95763.79
2019-06-01T22:55:42.355Z,95759.03
2019-06-01T22:58:12.406Z,95756.91
2019-06-01T23:00:42.430Z,95759.55
2019-06-01T23:03:12.413Z,95758.42
2019-06-01T23:05:42.492Z,95758.09
2019-06-01T23:08:12.577Z,95761.06
2019-06-01T23:10:42.554Z,95756.30
2019-06-01T23:13:12.642Z,95757.63
2019-06-01T23:15:42.652Z,95757.63
2019-06-01T23:18:12.642Z,95754.16
2019-06-01T23:20:42.695Z,95750.05
2019-06-01T23:23:13.991Z,95751.39
2019-06-01T23:25:44.038Z,95757.36
2019-06-01T23:28:14.045Z,95757.53
2019-06-01T23:30:45.394Z,95756.06
2019-06-01T23:33:15.406Z,95755.55
2019-06-01T23:35:45.383Z,95750.45
2019-06-01T23:38:15.395Z,95745.17
2019-06-01T23:40:45.379Z,95740.87
2019-06-01T23:43:15.384Z,95738.08
2019-06-01T23:45:45.367Z,95737.44
2019-06-01T23:48:15.404Z,95745.05
2019-06-01T23:50:45.426Z,95735.31
2019-06-01T23:53:15.452Z,95738.80
2019-06-01T23:55:45.430Z,95735.33
2019-06-01T23:58:15.442Z,95738.30
